createdAt,value
2017-12-21T00:00:36.590Z,15.70
2017-12-21T00:01:36.569Z,15.10
2017-12-21T00:02:36.510Z,15.30
2017-12-21T00:03:36.469Z,14.70
2017-12-21T00:04:36.436Z,14.60
2017-12-21T00:05:36.401Z,14.80
2017-12-21T00:06:36.355Z,14.90
2017-12-21T00:07:36.326Z,15.40
2017-12-21T00:08:36.280Z,15.50
2017-12-21T00:09:36.251Z,15.90
2017-12-21T00:10:37.005Z,15.20
2017-12-21T00:11:36.182Z,14.00
2017-12-21T00:12:36.135Z,15.20
2017-12-21T00:13:36.095Z,15.50
2017-12-21T00:14:36.065Z,15.40
2017-12-21T00:15:36.020Z,15.60
2017-12-21T00:16:35.992Z,16.00
2017-12-21T00:17:35.943Z,15.40
2017-12-21T00:18:35.913Z,15.60
2017-12-21T00:19:35.869Z,16.90
2017-12-21T00:20:35.840Z,16.60
2017-12-21T00:21:35.826Z,16.00
2017-12-21T00:22:35.771Z,17.10
2017-12-21T00:23:35.718Z,17.10
2017-12-21T00:24:35.682Z,17.40
2017-12-21T00:25:35.649Z,16.90
2017-12-21T00:26:35.660Z,16.50
2017-12-21T00:27:36.024Z,15.80
2017-12-21T00:28:35.531Z,17.20
2017-12-21T00:29:35.495Z,16.40
2017-12-21T00:30:35.461Z,16.40
2017-12-21T00:31:35.425Z,16.40
2017-12-21T00:32:35.382Z,15.70
2017-12-21T00:33:35.350Z,17.00
2017-12-21T00:34:35.322Z,16.90
2017-12-21T00:35:35.271Z,17.20
2017-12-21T00:36:35.235Z,17.50
2017-12-21T00:37:35.204Z,16.40
2017-12-21T00:38:35.188Z,17.70
2017-12-21T00:39:35.137Z,16.10
2017-12-21T00:40:35.083Z,16.90
2017-12-21T00:41:35.050Z,17.80
2017-12-21T00:42:35.019Z,18.30
2017-12-21T00:43:34.980Z,17.70
2017-12-21T00:44:34.935Z,18.20
2017-12-21T00:45:34.903Z,18.60
2017-12-21T00:46:34.866Z,16.00
2017-12-21T00:47:34.825Z,17.30
2017-12-21T00:48:34.824Z,18.20
2017-12-21T00:49:34.751Z,17.90
2017-12-21T00:50:34.714Z,18.00
2017-12-21T00:51:34.675Z,17.70
2017-12-21T00:52:34.677Z,17.90
2017-12-21T00:53:34.614Z,18.90
2017-12-21T00:54:34.566Z,17.60
2017-12-21T00:55:34.533Z,17.80
2017-12-21T00:56:34.530Z,17.90
2017-12-21T00:57:34.453Z,17.20
2017-12-21T00:58:34.415Z,18.00
2017-12-21T00:59:34.379Z,18.20
2017-12-21T01:00:34.351Z,19.40
2017-12-21T01:01:34.306Z,18.30
2017-12-21T01:02:34.276Z,17.70
2017-12-21T01:03:34.245Z,18.60
2017-12-21T01:04:34.193Z,17.40
2017-12-21T01:05:34.159Z,18.20
2017-12-21T01:06:34.123Z,17.70
2017-12-21T01:07:34.088Z,18.50
2017-12-21T01:08:34.043Z,17.70
2017-12-21T01:09:34.012Z,19.00
2017-12-21T01:10:34.015Z,19.30
2017-12-21T01:11:33.942Z,18.70
2017-12-21T01:12:33.903Z,18.40
2017-12-21T01:13:33.862Z,18.70
2017-12-21T01:14:33.861Z,19.10
2017-12-21T01:15:33.795Z,19.40
2017-12-21T01:16:33.749Z,20.10
2017-12-21T01:17:33.719Z,19.00
2017-12-21T01:18:33.700Z,18.40
2017-12-21T01:19:33.679Z,19.10
2017-12-21T01:20:33.601Z,18.40
2017-12-21T01:21:33.570Z,19.20
2017-12-21T01:22:33.532Z,19.30
2017-12-21T01:23:33.492Z,18.80
2017-12-21T01:24:33.466Z,19.60
2017-12-21T01:25:33.417Z,18.90
2017-12-21T01:26:33.382Z,19.50
2017-12-21T01:27:33.367Z,19.60
2017-12-21T01:28:33.336Z,20.20
2017-12-21T01:29:33.272Z,19.70
2017-12-21T01:30:33.232Z,20.10
2017-12-21T01:31:33.232Z,19.50
2017-12-21T01:32:33.166Z,20.50
2017-12-21T01:33:33.123Z,19.10
2017-12-21T01:34:33.110Z,19.90
2017-12-21T01:35:33.051Z,21.10
2017-12-21T01:36:33.011Z,20.80
2017-12-21T01:37:32.977Z,21.40
2017-12-21T01:38:32.961Z,21.20
2017-12-21T01:39:32.898Z,20.80
2017-12-21T01:40:32.866Z,21.20
2017-12-21T01:41:32.826Z,20.90
2017-12-21T01:42:32.789Z,21.10
2017-12-21T01:43:32.751Z,21.70
2017-12-21T01:44:32.738Z,22.50
2017-12-21T01:45:32.695Z,23.00
2017-12-21T01:46:32.642Z,21.60
2017-12-21T01:47:32.611Z,21.00
2017-12-21T01:48:32.568Z,21.30
2017-12-21T01:49:32.540Z,21.30
2017-12-21T01:50:32.499Z,22.60
2017-12-21T01:51:32.458Z,21.80
2017-12-21T01:52:32.423Z,21.20
2017-12-21T01:53:32.393Z,21.20
2017-12-21T01:54:32.345Z,21.40
2017-12-21T01:55:32.312Z,22.80
2017-12-21T01:56:32.297Z,22.50
2017-12-21T01:57:32.236Z,26.20
2017-12-21T01:58:32.198Z,23.30
2017-12-21T01:59:32.169Z,24.10
2017-12-21T02:00:32.127Z,24.40
2017-12-21T02:01:32.118Z,24.50
2017-12-21T02:02:32.071Z,25.80
2017-12-21T02:03:32.117Z,25.50
2017-12-21T02:04:31.979Z,25.00
2017-12-21T02:05:32.126Z,26.40
2017-12-21T02:06:32.118Z,26.00
2017-12-21T02:07:31.878Z,27.60
2017-12-21T02:08:31.834Z,25.70
2017-12-21T02:09:31.790Z,26.50
2017-12-21T02:10:31.754Z,25.70
2017-12-21T02:11:31.718Z,25.30
2017-12-21T02:12:31.683Z,25.50
2017-12-21T02:13:31.644Z,25.30
2017-12-21T02:14:31.606Z,26.30
2017-12-21T02:15:31.572Z,25.30
2017-12-21T02:16:31.542Z,26.00
2017-12-21T02:17:31.495Z,27.10
2017-12-21T02:18:31.477Z,27.30
2017-12-21T02:19:31.420Z,25.70
2017-12-21T02:20:31.408Z,26.30
2017-12-21T02:21:31.351Z,26.20
2017-12-21T02:22:31.309Z,28.30
2017-12-21T02:23:31.274Z,29.90
2017-12-21T02:24:31.238Z,29.60
2017-12-21T02:25:31.200Z,29.50
2017-12-21T02:26:31.229Z,28.90
2017-12-21T02:27:31.132Z,28.80
2017-12-21T02:28:31.088Z,28.90
2017-12-21T02:29:31.073Z,29.90
2017-12-21T02:30:31.022Z,31.30
2017-12-21T02:31:30.977Z,30.00
2017-12-21T02:32:30.941Z,30.60
2017-12-21T02:33:30.903Z,30.60
2017-12-21T02:34:30.865Z,30.60
2017-12-21T02:35:30.873Z,31.10
2017-12-21T02:36:30.790Z,31.50
2017-12-21T02:37:30.750Z,32.00
2017-12-21T02:38:30.716Z,33.00
2017-12-21T02:39:30.689Z,32.50
2017-12-21T02:40:30.654Z,32.70
2017-12-21T02:41:30.609Z,34.00
2017-12-21T02:42:30.570Z,32.90
2017-12-21T02:43:30.555Z,34.70
2017-12-21T02:44:30.492Z,37.10
2017-12-21T02:45:30.496Z,36.90
2017-12-21T02:46:30.420Z,37.00
2017-12-21T02:47:30.411Z,37.30
2017-12-21T02:48:30.346Z,36.90
2017-12-21T02:49:30.319Z,37.00
2017-12-21T02:50:30.284Z,37.60
2017-12-21T02:51:30.235Z,37.50
2017-12-21T02:52:30.276Z,36.40
2017-12-21T02:53:30.173Z,35.90
2017-12-21T02:54:30.155Z,38.10
2017-12-21T02:55:30.086Z,37.80
2017-12-21T02:56:30.049Z,39.70
2017-12-21T02:57:30.012Z,39.20
2017-12-21T02:58:29.974Z,40.30
2017-12-21T02:59:29.949Z,39.20
2017-12-21T03:00:29.898Z,41.90
2017-12-21T03:01:29.858Z,41.20
2017-12-21T03:02:29.835Z,38.90
2017-12-21T03:03:29.799Z,40.60
2017-12-21T03:04:29.747Z,39.00
2017-12-21T03:05:29.728Z,38.10
2017-12-21T03:06:29.682Z,38.30
2017-12-21T03:07:29.658Z,39.00
2017-12-21T03:08:29.611Z,38.40
2017-12-21T03:09:29.561Z,39.60
2017-12-21T03:10:29.533Z,41.40
2017-12-21T03:11:29.501Z,42.30
2017-12-21T03:12:29.450Z,41.30
2017-12-21T03:13:29.414Z,42.70
2017-12-21T03:14:29.373Z,44.90
2017-12-21T03:15:29.344Z,45.60
2017-12-21T03:16:29.310Z,45.80
2017-12-21T03:17:29.260Z,44.80
2017-12-21T03:18:29.221Z,42.80
2017-12-21T03:19:29.185Z,41.60
2017-12-21T03:20:29.145Z,41.40
2017-12-21T03:21:29.111Z,43.60
2017-12-21T03:22:29.083Z,45.50
2017-12-21T03:23:29.057Z,43.10
2017-12-21T03:24:29.032Z,42.50
2017-12-21T03:25:28.981Z,44.20
2017-12-21T03:26:28.924Z,44.00
2017-12-21T03:27:28.893Z,41.60
2017-12-21T03:28:28.852Z,41.50
2017-12-21T03:29:28.808Z,42.90
2017-12-21T03:30:28.771Z,43.50
2017-12-21T03:31:28.771Z,44.30
2017-12-21T03:32:28.714Z,43.10
2017-12-21T03:33:28.656Z,42.90
2017-12-21T03:34:28.620Z,44.90
2017-12-21T03:35:28.604Z,42.90
2017-12-21T03:36:28.545Z,44.10
2017-12-21T03:37:28.507Z,41.00
2017-12-21T03:38:28.470Z,39.30
2017-12-21T03:39:28.469Z,40.90
2017-12-21T03:40:28.405Z,43.20
2017-12-21T03:41:28.359Z,41.60
2017-12-21T03:42:28.319Z,43.00
2017-12-21T03:43:28.281Z,43.40
2017-12-21T03:44:28.242Z,43.30
2017-12-21T03:45:28.206Z,44.90
2017-12-21T03:46:28.173Z,46.60
2017-12-21T03:47:28.138Z,45.30
2017-12-21T03:48:28.092Z,45.90
2017-12-21T03:49:28.056Z,45.10
2017-12-21T03:50:28.018Z,43.80
2017-12-21T03:51:27.980Z,42.00
2017-12-21T03:52:27.951Z,40.70
2017-12-21T03:53:27.907Z,39.70
2017-12-21T03:54:27.867Z,39.20
2017-12-21T03:55:27.837Z,40.20
2017-12-21T03:56:27.791Z,37.00
2017-12-21T03:57:27.757Z,39.50
2017-12-21T03:58:27.719Z,38.20
2017-12-21T03:59:27.687Z,38.00
2017-12-21T04:00:27.642Z,37.70
2017-12-21T04:01:27.604Z,35.70
2017-12-21T04:02:27.574Z,36.30
2017-12-21T04:03:27.531Z,35.60
2017-12-21T04:04:27.493Z,34.50
2017-12-21T04:05:27.479Z,33.90
2017-12-21T04:06:27.420Z,33.20
2017-12-21T04:07:27.381Z,33.50
2017-12-21T04:08:27.352Z,32.60
2017-12-21T04:09:27.306Z,32.70
2017-12-21T04:10:27.267Z,33.50
2017-12-21T04:11:27.242Z,30.80
2017-12-21T04:12:27.193Z,31.30
2017-12-21T04:13:27.153Z,31.70
2017-12-21T04:14:27.118Z,32.60
2017-12-21T04:15:27.082Z,31.50
2017-12-21T04:16:27.042Z,31.00
2017-12-21T04:17:27.095Z,31.30
2017-12-21T04:18:26.971Z,30.90
2017-12-21T04:19:26.931Z,31.60
2017-12-21T04:20:26.893Z,32.20
2017-12-21T04:21:26.858Z,31.90
2017-12-21T04:22:26.818Z,31.80
2017-12-21T04:23:26.792Z,31.60
2017-12-21T04:24:26.745Z,30.80
2017-12-21T04:25:26.708Z,31.30
2017-12-21T04:26:26.669Z,32.40
2017-12-21T04:27:26.650Z,33.40
2017-12-21T04:28:26.593Z,31.50
2017-12-21T04:29:26.590Z,32.50
2017-12-21T04:30:26.519Z,33.00
2017-12-21T04:31:26.481Z,33.30
2017-12-21T04:32:26.445Z,32.60
2017-12-21T04:33:26.407Z,30.70
2017-12-21T04:34:26.372Z,33.30
2017-12-21T04:35:26.335Z,31.10
2017-12-21T04:36:26.308Z,31.60
2017-12-21T04:37:26.262Z,32.90
2017-12-21T04:38:26.691Z,32.10
2017-12-21T04:39:26.184Z,30.50
2017-12-21T04:40:26.153Z,30.60
2017-12-21T04:41:26.121Z,32.50
2017-12-21T04:42:26.071Z,49.50
2017-12-21T04:43:26.035Z,35.40
2017-12-21T04:44:25.997Z,34.50
2017-12-21T04:45:25.959Z,35.00
2017-12-21T04:46:25.921Z,33.80
2017-12-21T04:47:25.895Z,31.50
2017-12-21T04:48:25.847Z,32.60
2017-12-21T04:49:25.811Z,32.80
2017-12-21T04:50:26.137Z,30.30
2017-12-21T04:51:25.738Z,31.80
2017-12-21T04:52:25.699Z,31.60
2017-12-21T04:53:25.668Z,30.00
2017-12-21T04:54:25.626Z,30.60
2017-12-21T04:55:25.587Z,31.40
2017-12-21T04:56:25.551Z,31.00
2017-12-21T04:57:25.513Z,29.90
2017-12-21T04:58:25.475Z,29.70
2017-12-21T04:59:25.447Z,30.60
2017-12-21T05:00:25.403Z,30.20
2017-12-21T05:01:25.363Z,30.70
2017-12-21T05:02:25.324Z,28.50
2017-12-21T05:03:25.291Z,30.60
2017-12-21T05:04:25.255Z,29.00
2017-12-21T05:05:25.218Z,28.60
2017-12-21T05:06:25.177Z,29.00
2017-12-21T05:07:25.139Z,28.10
2017-12-21T05:08:25.106Z,28.40
2017-12-21T05:09:25.063Z,28.70
2017-12-21T05:10:25.028Z,28.40
2017-12-21T05:11:25.019Z,28.40
2017-12-21T05:12:24.954Z,28.00
2017-12-21T05:13:24.915Z,26.90
2017-12-21T05:14:24.876Z,29.20
2017-12-21T05:15:24.841Z,27.90
2017-12-21T05:16:24.802Z,28.30
2017-12-21T05:17:24.777Z,27.70
2017-12-21T05:18:24.729Z,25.40
2017-12-21T05:19:24.691Z,26.70
2017-12-21T05:20:25.093Z,26.70
2017-12-21T05:21:24.619Z,26.30
2017-12-21T05:22:24.587Z,25.10
2017-12-21T05:23:24.541Z,26.50
2017-12-21T05:24:24.505Z,27.40
2017-12-21T05:25:24.468Z,28.50
2017-12-21T05:26:24.432Z,26.60
2017-12-21T05:27:24.397Z,26.80
2017-12-21T05:28:24.367Z,27.40
2017-12-21T05:29:24.319Z,26.50
2017-12-21T05:30:24.281Z,27.30
2017-12-21T05:31:24.249Z,27.10
2017-12-21T05:32:24.208Z,27.20
2017-12-21T05:33:24.170Z,27.00
2017-12-21T05:34:24.134Z,27.90
2017-12-21T05:35:24.128Z,26.40
2017-12-21T05:36:24.059Z,27.60
2017-12-21T05:37:24.022Z,27.50
2017-12-21T05:38:23.986Z,29.00
2017-12-21T05:39:23.948Z,26.20
2017-12-21T05:40:23.910Z,28.10
2017-12-21T05:41:23.880Z,27.50
2017-12-21T05:42:23.842Z,27.50
2017-12-21T05:43:23.805Z,27.90
2017-12-21T05:44:23.762Z,28.30
2017-12-21T05:45:23.727Z,28.20
2017-12-21T05:46:23.688Z,29.60
2017-12-21T05:47:23.653Z,29.40
2017-12-21T05:48:23.621Z,30.40
2017-12-21T05:49:23.579Z,28.80
2017-12-21T05:50:23.546Z,30.20
2017-12-21T05:51:23.504Z,29.40
2017-12-21T05:52:23.466Z,28.80
2017-12-21T05:53:23.429Z,29.20
2017-12-21T05:54:23.397Z,29.80
2017-12-21T05:55:23.356Z,29.60
2017-12-21T05:56:23.318Z,28.20
2017-12-21T05:57:23.281Z,27.40
2017-12-21T05:58:23.252Z,28.90
2017-12-21T05:59:23.206Z,27.80
2017-12-21T06:00:23.174Z,27.80
2017-12-21T06:01:23.214Z,27.40
2017-12-21T06:02:23.111Z,27.20
2017-12-21T06:03:23.059Z,28.70
2017-12-21T06:04:23.022Z,28.30
2017-12-21T06:05:22.999Z,27.50
2017-12-21T06:06:22.948Z,28.90
2017-12-21T06:07:22.910Z,28.40
2017-12-21T06:08:22.877Z,27.70
2017-12-21T06:09:23.106Z,30.60
2017-12-21T06:10:22.816Z,30.80
2017-12-21T06:11:22.764Z,30.60
2017-12-21T06:12:22.725Z,30.50
2017-12-21T06:13:22.691Z,30.40
2017-12-21T06:14:22.659Z,31.20
2017-12-21T06:15:22.612Z,32.50
2017-12-21T06:16:22.575Z,31.00
2017-12-21T06:17:22.551Z,32.10
2017-12-21T06:18:22.501Z,32.20
2017-12-21T06:19:22.464Z,34.20
2017-12-21T06:20:22.425Z,36.60
2017-12-21T06:21:22.389Z,36.10
2017-12-21T06:22:22.689Z,36.90
2017-12-21T06:23:22.324Z,36.20
2017-12-21T06:24:22.277Z,38.00
2017-12-21T06:25:22.240Z,39.60
2017-12-21T06:26:22.204Z,40.90
2017-12-21T06:27:22.204Z,39.30
2017-12-21T06:28:22.128Z,39.50
2017-12-21T06:29:22.118Z,39.10
2017-12-21T06:30:22.052Z,40.30
2017-12-21T06:31:22.015Z,40.20
2017-12-21T06:32:21.991Z,39.70
2017-12-21T06:33:21.947Z,42.00
2017-12-21T06:34:21.904Z,40.00
2017-12-21T06:35:21.878Z,38.30
2017-12-21T06:36:21.831Z,40.60
2017-12-21T06:37:21.791Z,41.20
2017-12-21T06:38:21.754Z,42.00
2017-12-21T06:39:21.751Z,43.00
2017-12-21T06:40:21.680Z,41.10
2017-12-21T06:41:21.642Z,43.20
2017-12-21T06:42:21.649Z,44.00
2017-12-21T06:43:21.570Z,43.80
2017-12-21T06:44:21.529Z,43.10
2017-12-21T06:45:21.491Z,43.20
2017-12-21T06:46:21.455Z,41.80
2017-12-21T06:47:21.417Z,43.90
2017-12-21T06:48:21.391Z,44.00
2017-12-21T06:49:21.342Z,42.40
2017-12-21T06:50:21.306Z,45.20
2017-12-21T06:51:21.271Z,43.20
2017-12-21T06:52:21.237Z,45.10
2017-12-21T06:53:21.197Z,45.40
2017-12-21T06:54:21.165Z,45.50
2017-12-21T06:55:21.118Z,45.40
2017-12-21T06:56:21.079Z,45.80
2017-12-21T06:57:21.043Z,45.30
2017-12-21T06:58:21.005Z,47.40
2017-12-21T06:59:20.968Z,46.90
2017-12-21T07:00:20.929Z,47.60
2017-12-21T07:01:20.938Z,46.60
2017-12-21T07:02:20.884Z,49.70
2017-12-21T07:03:20.820Z,48.30
2017-12-21T07:04:20.782Z,50.30
2017-12-21T07:05:20.743Z,50.50
2017-12-21T07:06:20.707Z,49.90
2017-12-21T07:07:20.684Z,48.20
2017-12-21T07:08:20.634Z,48.60
2017-12-21T07:09:20.592Z,47.80
2017-12-21T07:10:20.556Z,47.20
2017-12-21T07:11:20.518Z,46.00
2017-12-21T07:12:20.528Z,45.50
2017-12-21T07:13:20.697Z,46.30
2017-12-21T07:14:20.407Z,45.30
2017-12-21T07:15:20.368Z,45.40
2017-12-21T07:16:20.329Z,47.10
2017-12-21T07:17:20.294Z,47.00
2017-12-21T07:18:20.264Z,48.70
2017-12-21T07:19:20.234Z,47.80
2017-12-21T07:20:20.182Z,48.20
2017-12-21T07:21:20.141Z,48.40
2017-12-21T07:22:20.107Z,48.90
2017-12-21T07:23:20.073Z,48.10
2017-12-21T07:24:20.031Z,48.70
2017-12-21T07:25:20.000Z,49.80
2017-12-21T07:26:19.957Z,50.60
2017-12-21T07:27:19.919Z,50.90
2017-12-21T07:28:19.881Z,48.10
2017-12-21T07:29:19.842Z,48.20
2017-12-21T07:30:19.806Z,48.40
2017-12-21T07:31:19.780Z,47.50
2017-12-21T07:32:19.730Z,48.20
2017-12-21T07:33:19.697Z,48.10
2017-12-21T07:34:19.656Z,45.70
2017-12-21T07:35:19.620Z,47.30
2017-12-21T07:36:19.582Z,48.50
2017-12-21T07:37:19.917Z,46.40
2017-12-21T07:38:19.510Z,47.80
2017-12-21T07:39:19.470Z,47.70
2017-12-21T07:40:19.433Z,46.00
2017-12-21T07:41:19.396Z,46.40
2017-12-21T07:42:19.357Z,43.90
2017-12-21T07:43:19.327Z,43.00
2017-12-21T07:44:19.281Z,40.40
2017-12-21T07:45:19.244Z,40.50
2017-12-21T07:46:19.208Z,39.70
2017-12-21T07:47:19.172Z,38.00
2017-12-21T07:48:19.133Z,39.10
2017-12-21T07:49:19.133Z,37.80
2017-12-21T07:50:19.059Z,37.70
2017-12-21T07:51:19.020Z,39.30
2017-12-21T07:52:19.025Z,38.20
2017-12-21T07:53:18.943Z,36.50
2017-12-21T07:54:18.909Z,36.00
2017-12-21T07:55:18.879Z,33.90
2017-12-21T07:56:18.839Z,33.50
2017-12-21T07:57:18.795Z,31.80
2017-12-21T07:58:18.758Z,33.40
2017-12-21T07:59:18.720Z,33.30
2017-12-21T08:00:18.884Z,33.40
2017-12-21T08:01:18.656Z,32.90
2017-12-21T08:02:18.610Z,31.90
2017-12-21T08:03:18.571Z,32.90
2017-12-21T08:04:18.534Z,32.50
2017-12-21T08:05:18.495Z,29.90
2017-12-21T08:06:18.458Z,27.20
2017-12-21T08:07:18.427Z,24.90
2017-12-21T08:08:18.384Z,25.90
2017-12-21T08:09:18.346Z,25.50
2017-12-21T08:10:18.308Z,26.20
2017-12-21T08:11:18.272Z,24.60
2017-12-21T08:12:18.234Z,24.90
2017-12-21T08:13:18.209Z,25.30
2017-12-21T08:14:18.159Z,23.00
2017-12-21T08:15:18.122Z,20.30
2017-12-21T08:16:18.082Z,21.00
2017-12-21T08:17:18.046Z,21.50
2017-12-21T08:18:18.009Z,21.20
2017-12-21T08:19:17.995Z,23.10
2017-12-21T08:20:17.934Z,22.70
2017-12-21T08:21:17.897Z,20.20
2017-12-21T08:22:17.860Z,18.70
2017-12-21T08:23:17.823Z,20.70
2017-12-21T08:24:17.784Z,19.10
2017-12-21T08:25:17.753Z,20.30
2017-12-21T08:26:17.711Z,21.60
2017-12-21T08:27:17.675Z,21.30
2017-12-21T08:28:17.636Z,20.40
2017-12-21T08:29:17.596Z,21.80
2017-12-21T08:30:17.561Z,22.60
2017-12-21T08:31:17.527Z,22.20
2017-12-21T08:32:17.484Z,23.50
2017-12-21T08:33:17.448Z,23.50
2017-12-21T08:34:17.411Z,22.30
2017-12-21T08:35:17.376Z,24.90
2017-12-21T08:36:17.335Z,25.00
2017-12-21T08:37:17.302Z,23.30
2017-12-21T08:38:17.258Z,26.20
2017-12-21T08:39:17.224Z,25.90
2017-12-21T08:40:17.184Z,24.40
2017-12-21T08:41:17.146Z,26.00
2017-12-21T08:42:17.115Z,25.60
2017-12-21T08:43:17.073Z,24.80
2017-12-21T08:44:17.041Z,24.10
2017-12-21T08:45:16.996Z,26.90
2017-12-21T08:46:16.960Z,26.90
2017-12-21T08:47:16.920Z,26.30
2017-12-21T08:48:16.893Z,27.10
2017-12-21T08:49:16.846Z,28.00
2017-12-21T08:50:16.808Z,27.70
2017-12-21T08:51:16.771Z,25.50
2017-12-21T08:52:17.334Z,27.10
2017-12-21T08:53:16.697Z,26.60
2017-12-21T08:54:16.665Z,28.00
2017-12-21T08:55:16.623Z,27.20
2017-12-21T08:56:16.583Z,27.40
2017-12-21T08:57:16.549Z,27.00
2017-12-21T08:58:16.512Z,26.50
2017-12-21T08:59:16.478Z,24.60
2017-12-21T09:00:16.436Z,24.70
2017-12-21T09:01:16.405Z,26.20
2017-12-21T09:02:16.358Z,26.50
2017-12-21T09:03:16.321Z,25.60
2017-12-21T09:04:16.284Z,25.20
2017-12-21T09:05:16.245Z,25.90
2017-12-21T09:06:16.209Z,25.90
2017-12-21T09:07:16.181Z,27.70
2017-12-21T09:08:16.135Z,28.20
2017-12-21T09:09:16.098Z,27.70
2017-12-21T09:10:16.060Z,27.30
2017-12-21T09:11:16.023Z,25.00
2017-12-21T09:12:15.984Z,25.90
2017-12-21T09:13:15.959Z,27.30
2017-12-21T09:14:15.910Z,26.70
2017-12-21T09:15:15.872Z,26.60
2017-12-21T09:16:15.849Z,25.20
2017-12-21T09:17:15.796Z,26.30
2017-12-21T09:18:15.761Z,26.10
2017-12-21T09:19:15.734Z,25.40
2017-12-21T09:20:15.686Z,26.40
2017-12-21T09:21:15.651Z,26.40
2017-12-21T09:22:15.612Z,24.80
2017-12-21T09:23:15.573Z,24.80
2017-12-21T09:24:15.535Z,25.20
2017-12-21T09:25:15.524Z,24.50
2017-12-21T09:26:15.463Z,23.30
2017-12-21T09:27:15.425Z,22.90
2017-12-21T09:28:15.387Z,22.40
2017-12-21T09:29:15.351Z,23.00
2017-12-21T09:30:15.500Z,24.00
2017-12-21T09:31:15.288Z,22.00
2017-12-21T09:32:15.242Z,22.40
2017-12-21T09:33:15.202Z,21.50
2017-12-21T09:34:15.165Z,18.60
2017-12-21T09:35:15.130Z,18.20
2017-12-21T09:36:15.088Z,19.30
2017-12-21T09:37:15.051Z,19.50
2017-12-21T09:38:15.030Z,19.70
2017-12-21T09:39:14.979Z,18.90
2017-12-21T09:40:14.940Z,17.30
2017-12-21T09:41:14.902Z,17.00
2017-12-21T09:42:14.866Z,15.70
2017-12-21T09:43:14.828Z,15.80
2017-12-21T09:44:14.820Z,16.70
2017-12-21T09:45:14.756Z,16.80
2017-12-21T09:46:14.719Z,14.40
2017-12-21T09:47:14.680Z,15.80
2017-12-21T09:48:14.642Z,14.50
2017-12-21T09:49:14.605Z,13.30
2017-12-21T09:50:14.570Z,11.30
2017-12-21T09:51:14.540Z,12.50
2017-12-21T09:52:14.492Z,12.00
2017-12-21T09:53:14.457Z,12.50
2017-12-21T09:54:14.424Z,12.50
2017-12-21T09:55:14.395Z,12.00
2017-12-21T09:56:14.346Z,13.00
2017-12-21T09:57:14.349Z,12.90
2017-12-21T09:58:14.321Z,13.40
2017-12-21T09:59:14.241Z,13.30
2017-12-21T10:00:14.199Z,11.20
2017-12-21T10:01:14.161Z,10.80
2017-12-21T10:02:14.131Z,12.10
2017-12-21T10:03:14.091Z,11.50
2017-12-21T10:04:14.067Z,12.60
2017-12-21T10:05:14.017Z,12.60
2017-12-21T10:06:13.978Z,12.70
2017-12-21T10:07:13.942Z,13.50
2017-12-21T10:08:13.905Z,13.30
2017-12-21T10:09:13.870Z,12.70
2017-12-21T10:10:13.844Z,12.60
2017-12-21T10:11:13.795Z,13.20
2017-12-21T10:12:13.761Z,13.10
2017-12-21T10:13:13.721Z,12.40
2017-12-21T10:14:13.685Z,11.80
2017-12-21T10:15:13.650Z,12.40
2017-12-21T10:16:13.640Z,11.90
2017-12-21T10:17:13.575Z,13.00
2017-12-21T10:18:13.541Z,12.80
2017-12-21T10:19:13.505Z,12.20
2017-12-21T10:20:13.468Z,12.60
2017-12-21T10:21:13.430Z,11.90
2017-12-21T10:22:13.400Z,12.30
2017-12-21T10:23:13.364Z,11.90
2017-12-21T10:24:13.321Z,11.60
2017-12-21T10:25:13.284Z,12.10
2017-12-21T10:26:13.296Z,11.80
2017-12-21T10:27:13.215Z,12.40
2017-12-21T10:28:13.179Z,12.20
2017-12-21T10:29:13.139Z,12.20
2017-12-21T10:30:13.132Z,11.90
2017-12-21T10:31:13.067Z,12.40
2017-12-21T10:32:13.030Z,11.90
2017-12-21T10:33:13.004Z,12.30
2017-12-21T10:34:12.957Z,12.00
2017-12-21T10:35:12.926Z,12.30
2017-12-21T10:36:12.883Z,11.70
2017-12-21T10:37:12.847Z,11.60
2017-12-21T10:38:12.810Z,10.90
2017-12-21T10:39:12.777Z,11.50
2017-12-21T10:40:12.742Z,11.50
2017-12-21T10:41:12.706Z,11.70
2017-12-21T10:42:12.664Z,10.50
2017-12-21T10:43:12.628Z,11.00
2017-12-21T10:44:12.601Z,10.90
2017-12-21T10:45:12.553Z,11.30
2017-12-21T10:46:12.529Z,11.90
2017-12-21T10:47:12.482Z,11.30
2017-12-21T10:48:12.448Z,10.80
2017-12-21T10:49:12.409Z,11.20
2017-12-21T10:50:12.372Z,11.60
2017-12-21T10:51:12.336Z,11.30
2017-12-21T10:52:12.349Z,11.90
2017-12-21T10:53:12.261Z,11.20
2017-12-21T10:54:12.227Z,11.10
2017-12-21T10:55:12.189Z,11.50
2017-12-21T10:56:12.154Z,10.70
2017-12-21T10:57:12.118Z,11.70
2017-12-21T10:58:12.084Z,11.30
2017-12-21T10:59:12.056Z,11.40
2017-12-21T11:00:12.010Z,12.20
2017-12-21T11:01:11.970Z,11.60
2017-12-21T11:02:11.932Z,12.30
2017-12-21T11:03:11.898Z,11.10
2017-12-21T11:04:11.864Z,11.20
2017-12-21T11:05:11.827Z,12.20
2017-12-21T11:06:11.829Z,12.60
2017-12-21T11:07:11.752Z,12.50
2017-12-21T11:08:11.742Z,13.10
2017-12-21T11:09:11.678Z,12.60
2017-12-21T11:10:11.642Z,12.10
2017-12-21T11:11:11.611Z,12.40
2017-12-21T11:12:11.583Z,12.40
2017-12-21T11:13:11.532Z,13.50
2017-12-21T11:14:11.495Z,15.80
2017-12-21T11:15:11.462Z,14.10
2017-12-21T11:16:11.432Z,15.30
2017-12-21T11:17:11.385Z,14.70
2017-12-21T11:18:11.422Z,15.70
2017-12-21T11:19:11.316Z,14.90
2017-12-21T11:20:11.276Z,17.40
2017-12-21T11:21:11.239Z,15.30
2017-12-21T11:22:11.205Z,16.90
2017-12-21T11:23:11.166Z,16.50
2017-12-21T11:24:11.146Z,16.10
2017-12-21T11:25:11.101Z,18.20
2017-12-21T11:26:11.075Z,17.90
2017-12-21T11:27:11.033Z,18.20
2017-12-21T11:28:10.986Z,16.40
2017-12-21T11:29:10.949Z,16.80
2017-12-21T11:30:10.911Z,16.60
2017-12-21T11:31:10.878Z,17.10
2017-12-21T11:32:10.844Z,17.30
2017-12-21T11:33:10.800Z,16.00
2017-12-21T11:34:10.765Z,19.60
2017-12-21T11:35:10.730Z,20.40
2017-12-21T11:36:10.690Z,18.30
2017-12-21T11:37:10.655Z,18.10
2017-12-21T11:38:10.628Z,18.30
2017-12-21T11:39:10.584Z,17.50
2017-12-21T11:40:10.545Z,17.80
2017-12-21T11:41:10.510Z,18.70
2017-12-21T11:42:10.472Z,19.30
2017-12-21T11:43:10.436Z,18.70
2017-12-21T11:44:10.409Z,19.50
2017-12-21T11:45:10.362Z,19.00
2017-12-21T11:46:10.325Z,19.40
2017-12-21T11:47:10.290Z,19.30
2017-12-21T11:48:10.273Z,19.20
2017-12-21T11:49:10.446Z,20.10
2017-12-21T11:50:10.920Z,19.50
2017-12-21T11:51:10.148Z,19.40
2017-12-21T11:52:10.107Z,20.40
2017-12-21T11:53:10.070Z,21.00
2017-12-21T11:54:10.032Z,21.10
2017-12-21T11:55:09.996Z,19.70
2017-12-21T11:56:09.958Z,19.90
2017-12-21T11:57:09.927Z,20.40
2017-12-21T11:58:09.886Z,19.60
2017-12-21T11:59:09.850Z,21.20
2017-12-21T12:00:09.812Z,20.30
2017-12-21T12:01:10.047Z,20.70
2017-12-21T12:02:09.740Z,22.50
2017-12-21T12:03:09.714Z,22.20
2017-12-21T12:04:09.666Z,21.90
2017-12-21T12:05:09.628Z,21.30
2017-12-21T12:06:09.592Z,21.80
2017-12-21T12:07:09.571Z,23.10
2017-12-21T12:08:09.518Z,22.50
2017-12-21T12:09:09.492Z,23.60
2017-12-21T12:10:10.288Z,25.20
2017-12-21T12:11:09.411Z,24.80
2017-12-21T12:12:09.372Z,25.40
2017-12-21T12:13:09.334Z,25.50
2017-12-21T12:14:09.304Z,24.10
2017-12-21T12:15:09.262Z,23.40
2017-12-21T12:16:09.240Z,23.90
2017-12-21T12:17:09.188Z,24.50
2017-12-21T12:18:09.153Z,24.30
2017-12-21T12:19:09.296Z,24.70
2017-12-21T12:20:09.080Z,24.40
2017-12-21T12:21:09.040Z,25.10
2017-12-21T12:22:09.022Z,26.70
2017-12-21T12:23:08.968Z,28.30
2017-12-21T12:24:08.931Z,28.50
2017-12-21T12:25:08.895Z,26.80
2017-12-21T12:26:08.858Z,26.60
2017-12-21T12:27:08.820Z,30.50
2017-12-21T12:28:08.800Z,34.70
2017-12-21T12:29:08.750Z,36.00
2017-12-21T12:30:08.710Z,44.20
2017-12-21T12:31:08.677Z,41.00
2017-12-21T12:32:08.645Z,43.30
2017-12-21T12:33:08.602Z,40.40
2017-12-21T12:34:08.587Z,40.20
2017-12-21T12:35:08.535Z,37.80
2017-12-21T12:36:09.219Z,37.70
2017-12-21T12:37:08.459Z,37.30
2017-12-21T12:38:08.438Z,35.70
2017-12-21T12:39:08.382Z,30.70
2017-12-21T12:40:08.360Z,31.20
2017-12-21T12:41:08.306Z,31.50
2017-12-21T12:42:08.276Z,30.80
2017-12-21T12:43:08.235Z,31.20
2017-12-21T12:44:08.201Z,32.00
2017-12-21T12:45:08.160Z,32.30
2017-12-21T12:46:08.130Z,30.60
2017-12-21T12:47:08.089Z,32.00
2017-12-21T12:48:08.048Z,32.30
2017-12-21T12:49:08.013Z,32.10
2017-12-21T12:50:07.979Z,33.20
2017-12-21T12:51:07.938Z,33.30
2017-12-21T12:52:07.902Z,34.20